LFSM

Montbéliard-Courcelles Airport

Airport
ICAO code
LFSM
Summary
ICAO Region
EUR
ICAO Territory
Location

, Franche-Comte

Serving
Montbeliard
Elevation
1041 ft
Coordinates
47° 29' 13" N , 6° 47' 26" E
Metar
Observation
LFSM 021430Z AUTO 04008KT 010V070 8000 OVC015 04/02 Q1016
Station
Montbéliard-Courcelles
Date/Time
2022-12-02 14:30:00
Wind direction
40°
Wind speed
08 kts
Lowest cloud amount
overcast
Temperature
4°C
Dew point
2°C
Humidity
86%
QNH
1016 hPa
Weather condition
n/a

Runways

Designator Length Width Surface Rops
8/26 1700 20 ASP No/No

Airport map

Aerial View

SKYbrary Partners:

Safety knowledge contributed by: